createdAt,value
2022-08-22T00:01:42.349Z,37.23
2022-08-22T00:02:48.935Z,33.29
2022-08-22T00:03:00.023Z,30.74
2022-08-22T00:03:00.353Z,35.77
2022-08-22T00:03:02.257Z,32.00
2022-08-22T00:03:10.730Z,37.69
2022-08-22T00:04:09.636Z,37.55
2022-08-22T00:07:04.456Z,37.84
2022-08-22T00:09:53.470Z,37.37
2022-08-22T00:12:52.695Z,37.68
2022-08-22T00:15:42.277Z,37.70
2022-08-22T00:18:13.900Z,37.73
2022-08-22T00:21:03.496Z,37.59
2022-08-22T00:23:38.650Z,37.94
2022-08-22T00:26:44.729Z,37.78
2022-08-22T00:29:22.070Z,37.89
2022-08-22T00:31:56.703Z,37.67
2022-08-22T00:34:32.735Z,37.75
2022-08-22T00:37:02.573Z,37.72
2022-08-22T00:40:03.191Z,38.01
2022-08-22T00:42:40.458Z,38.22
2022-08-22T00:45:53.640Z,37.78
2022-08-22T00:49:00.001Z,38.38
2022-08-22T00:52:13.093Z,38.20
2022-08-22T00:54:55.785Z,38.35
2022-08-22T00:57:31.908Z,38.53
2022-08-22T01:00:14.781Z,38.32
2022-08-22T01:02:58.617Z,38.29
2022-08-22T01:05:54.013Z,38.64
2022-08-22T01:08:33.902Z,38.37
2022-08-22T01:11:09.961Z,38.19
2022-08-22T01:13:58.635Z,38.34
2022-08-22T01:16:34.836Z,38.17
2022-08-22T01:19:52.822Z,38.04
2022-08-22T01:22:44.234Z,38.21
2022-08-22T01:25:26.145Z,41.51
2022-08-22T01:28:23.336Z,42.97
2022-08-22T01:31:20.460Z,43.50
2022-08-22T01:34:15.555Z,44.45
2022-08-22T01:36:51.642Z,46.58
2022-08-22T01:39:46.496Z,45.20
2022-08-22T01:42:15.211Z,52.06
2022-08-22T01:45:01.207Z,53.06
2022-08-22T01:47:43.791Z,49.47
2022-08-22T01:50:17.706Z,52.33
2022-08-22T01:52:48.844Z,47.90
2022-08-22T01:55:24.636Z,51.09
2022-08-22T01:57:53.393Z,48.29
2022-08-22T02:00:35.555Z,49.31
2022-08-22T02:03:31.792Z,52.82
2022-08-22T02:06:07.428Z,52.46
2022-08-22T02:08:59.093Z,50.11
2022-08-22T02:11:39.262Z,51.19
2022-08-22T02:14:21.470Z,49.04
2022-08-22T02:16:53.877Z,48.74
2022-08-22T02:19:34.494Z,50.54
2022-08-22T02:22:20.253Z,47.81
2022-08-22T02:25:13.511Z,48.67
2022-08-22T02:28:10.078Z,47.74
2022-08-22T02:30:52.414Z,48.18
2022-08-22T02:33:45.838Z,46.92
2022-08-22T02:36:32.512Z,47.25
2022-08-22T02:39:19.700Z,46.49
2022-08-22T02:41:55.778Z,47.21
2022-08-22T02:44:29.883Z,46.06
2022-08-22T02:47:10.666Z,45.54
2022-08-22T02:49:43.662Z,46.48
2022-08-22T02:52:25.326Z,46.31
2022-08-22T02:55:04.104Z,46.91
2022-08-22T02:57:39.346Z,46.58
2022-08-22T03:00:31.844Z,46.85
2022-08-22T03:03:14.536Z,46.45
2022-08-22T03:05:47.371Z,46.50
2022-08-22T03:08:21.259Z,46.22
2022-08-22T03:10:56.624Z,46.84
2022-08-22T03:13:36.114Z,45.86
2022-08-22T03:16:29.572Z,45.73
2022-08-22T03:19:04.808Z,45.26
2022-08-22T03:21:56.009Z,46.10
2022-08-22T03:24:35.368Z,45.45
2022-08-22T03:27:31.353Z,45.40
2022-08-22T03:30:07.812Z,45.20
2022-08-22T03:32:54.545Z,44.92
2022-08-22T03:35:46.533Z,45.01
2022-08-22T03:38:35.084Z,44.71
2022-08-22T03:41:21.032Z,44.57
2022-08-22T03:44:03.284Z,45.03
2022-08-22T03:46:39.552Z,44.77
2022-08-22T03:49:45.314Z,44.59
2022-08-22T03:53:03.040Z,44.57
2022-08-22T03:55:54.880Z,44.54
2022-08-22T03:58:46.876Z,44.84
2022-08-22T04:01:46.267Z,44.89
2022-08-22T04:04:31.728Z,44.10
2022-08-22T04:07:42.705Z,44.37
2022-08-22T04:10:31.849Z,44.49
2022-08-22T04:13:13.886Z,44.27
2022-08-22T04:15:47.005Z,43.64
2022-08-22T04:18:28.931Z,44.04
2022-08-22T04:21:21.610Z,43.91
2022-08-22T04:24:07.202Z,44.00
2022-08-22T04:26:41.945Z,43.10
2022-08-22T04:29:26.802Z,43.40
2022-08-22T04:32:28.968Z,43.30
2022-08-22T04:35:00.003Z,43.14
2022-08-22T04:37:51.064Z,42.95
2022-08-22T04:40:47.397Z,43.20
2022-08-22T04:43:34.208Z,43.09
2022-08-22T04:46:23.039Z,42.94
2022-08-22T04:48:50.102Z,43.30
2022-08-22T04:51:26.670Z,42.90
2022-08-22T04:54:09.075Z,42.56
2022-08-22T04:56:54.689Z,42.28
2022-08-22T04:59:24.624Z,42.36
2022-08-22T05:01:57.839Z,42.53
2022-08-22T05:04:32.420Z,42.22
2022-08-22T05:07:17.181Z,42.21
2022-08-22T05:09:51.827Z,41.60
2022-08-22T05:12:30.579Z,42.17
2022-08-22T05:15:05.735Z,42.07
2022-08-22T05:17:38.807Z,42.67
2022-08-22T05:20:10.136Z,41.73
2022-08-22T05:22:42.288Z,41.60
2022-08-22T05:25:15.191Z,42.13
2022-08-22T05:27:48.389Z,42.32
2022-08-22T05:30:25.051Z,41.99
2022-08-22T05:33:15.294Z,41.84
2022-08-22T05:35:54.624Z,42.23
2022-08-22T05:38:30.114Z,42.21
2022-08-22T05:41:05.759Z,42.70
2022-08-22T05:43:38.467Z,42.36
2022-08-22T05:46:09.952Z,41.60
2022-08-22T05:48:46.412Z,42.08
2022-08-22T05:51:22.255Z,41.47
2022-08-22T05:53:58.053Z,41.76
2022-08-22T05:56:47.931Z,41.58
2022-08-22T05:59:27.911Z,41.35
2022-08-22T06:02:21.811Z,40.52
2022-08-22T06:05:00.984Z,41.27
2022-08-22T06:07:33.931Z,40.49
2022-08-22T06:10:14.564Z,39.64
2022-08-22T06:12:44.629Z,39.63
2022-08-22T06:15:21.047Z,39.94
2022-08-22T06:17:52.628Z,39.39
2022-08-22T06:20:24.288Z,40.07
2022-08-22T06:22:59.073Z,39.12
2022-08-22T06:25:32.399Z,39.66
2022-08-22T06:28:13.014Z,38.86
2022-08-22T06:30:40.779Z,39.10
2022-08-22T06:33:12.853Z,39.11
2022-08-22T06:36:13.903Z,39.38
2022-08-22T06:39:23.137Z,39.19
2022-08-22T06:41:59.323Z,38.83
2022-08-22T06:44:39.574Z,39.15
2022-08-22T06:47:10.384Z,39.37
2022-08-22T06:49:40.636Z,39.76
2022-08-22T06:52:11.680Z,39.40
2022-08-22T06:54:44.758Z,39.74
2022-08-22T06:57:35.576Z,39.93
2022-08-22T07:00:10.530Z,39.04
2022-08-22T07:02:45.357Z,39.01
2022-08-22T07:05:34.447Z,39.04
2022-08-22T07:08:10.911Z,38.75
2022-08-22T07:10:43.656Z,38.83
2022-08-22T07:13:16.487Z,39.14
2022-08-22T07:15:44.057Z,39.42
2022-08-22T07:18:20.820Z,39.00
2022-08-22T07:20:54.968Z,39.14
2022-08-22T07:23:25.154Z,38.56
2022-08-22T07:26:02.544Z,38.45
2022-08-22T07:28:51.226Z,38.54
2022-08-22T07:31:44.523Z,38.57
2022-08-22T07:34:56.893Z,38.53
2022-08-22T07:37:23.952Z,39.71
2022-08-22T07:40:16.758Z,39.08
2022-08-22T07:42:48.140Z,38.78
2022-08-22T07:45:20.824Z,38.77
2022-08-22T07:48:26.158Z,38.73
2022-08-22T07:51:09.203Z,38.28
2022-08-22T07:53:42.010Z,38.60
2022-08-22T07:56:16.660Z,37.75
2022-08-22T07:58:48.530Z,37.80
2022-08-22T08:01:22.358Z,38.08
2022-08-22T08:04:02.252Z,37.99
2022-08-22T08:06:32.517Z,38.73
2022-08-22T08:08:59.741Z,37.93
2022-08-22T08:11:32.392Z,38.64
2022-08-22T08:14:04.885Z,38.68
2022-08-22T08:16:40.981Z,37.54
2022-08-22T08:19:10.911Z,37.37
2022-08-22T08:21:43.557Z,37.69
2022-08-22T08:24:15.942Z,37.92
2022-08-22T08:27:08.377Z,38.56
2022-08-22T08:29:37.123Z,38.03
2022-08-22T08:32:05.967Z,37.62
2022-08-22T08:34:45.665Z,37.63
2022-08-22T08:37:25.712Z,37.70
2022-08-22T08:39:58.239Z,37.67
2022-08-22T08:43:02.738Z,37.88
2022-08-22T08:45:42.150Z,36.76
2022-08-22T08:48:18.720Z,37.05
2022-08-22T08:50:57.624Z,36.76
2022-08-22T08:53:53.121Z,37.40
2022-08-22T08:56:35.679Z,37.16
2022-08-22T08:59:44.178Z,36.99
2022-08-22T09:02:23.637Z,36.18
2022-08-22T09:05:12.767Z,35.35
2022-08-22T09:07:39.997Z,35.81
2022-08-22T09:10:22.473Z,35.14
2022-08-22T09:13:29.169Z,35.36
2022-08-22T09:16:23.254Z,35.22
2022-08-22T09:19:11.621Z,35.27
2022-08-22T09:22:25.129Z,34.93
2022-08-22T09:25:06.249Z,35.45
2022-08-22T09:27:45.945Z,34.93
2022-08-22T09:30:28.886Z,34.52
2022-08-22T09:33:06.429Z,34.90
2022-08-22T09:35:51.873Z,33.94
2022-08-22T09:38:39.996Z,34.36
2022-08-22T09:41:35.622Z,33.66
2022-08-22T09:44:24.928Z,33.76
2022-08-22T09:47:35.460Z,33.62
2022-08-22T09:50:20.690Z,34.44
2022-08-22T09:53:11.080Z,34.00
2022-08-22T09:56:11.557Z,34.37
2022-08-22T09:58:51.616Z,33.73
2022-08-22T10:01:18.836Z,33.89
2022-08-22T10:03:46.104Z,33.71
2022-08-22T10:06:21.245Z,33.07
2022-08-22T10:09:18.721Z,33.98
2022-08-22T10:11:54.095Z,32.89
2022-08-22T10:14:50.582Z,32.93
2022-08-22T10:17:26.144Z,33.84
2022-08-22T10:20:14.444Z,33.20
2022-08-22T10:22:56.320Z,33.33
2022-08-22T10:25:42.152Z,33.56
2022-08-22T10:28:21.491Z,32.91
2022-08-22T10:30:52.066Z,33.04
2022-08-22T10:33:32.745Z,33.30
2022-08-22T10:36:12.096Z,31.75
2022-08-22T10:38:52.450Z,31.90
2022-08-22T10:41:28.585Z,32.36
2022-08-22T10:44:43.030Z,31.43
2022-08-22T10:47:19.086Z,31.63
2022-08-22T10:49:53.987Z,32.01
2022-08-22T10:52:45.645Z,31.41
2022-08-22T10:55:17.569Z,31.67
2022-08-22T10:57:53.890Z,31.64
2022-08-22T11:00:37.950Z,31.01
2022-08-22T11:03:35.681Z,29.58
2022-08-22T11:06:21.497Z,30.87
2022-08-22T11:09:20.487Z,30.98
2022-08-22T11:12:02.757Z,31.17
2022-08-22T11:14:53.730Z,31.02
2022-08-22T11:17:54.256Z,29.66
2022-08-22T11:20:36.044Z,29.47
2022-08-22T11:23:19.541Z,29.81
2022-08-22T11:26:07.614Z,29.64
2022-08-22T11:28:52.773Z,29.96
2022-08-22T11:31:51.662Z,31.21
2022-08-22T11:34:38.800Z,30.09
2022-08-22T11:37:23.846Z,29.20
2022-08-22T11:40:40.141Z,29.06
2022-08-22T11:43:46.560Z,29.95
2022-08-22T11:46:38.614Z,30.09
2022-08-22T11:49:33.880Z,29.71
2022-08-22T11:52:03.945Z,29.73
2022-08-22T11:54:47.916Z,29.83
2022-08-22T11:57:37.296Z,29.61
2022-08-22T12:00:11.328Z,29.50
2022-08-22T12:03:27.609Z,29.77
2022-08-22T12:06:08.601Z,29.64
2022-08-22T12:08:35.848Z,29.70
2022-08-22T12:11:17.846Z,29.77
2022-08-22T12:13:50.484Z,29.87
2022-08-22T12:16:24.184Z,29.46
2022-08-22T12:19:16.610Z,29.45
2022-08-22T12:22:02.182Z,29.94
2022-08-22T12:24:36.314Z,29.82
2022-08-22T12:27:30.758Z,29.82
2022-08-22T12:30:22.581Z,29.57
2022-08-22T12:33:13.045Z,29.99
2022-08-22T12:35:58.460Z,30.07
2022-08-22T12:38:54.388Z,29.73
2022-08-22T12:41:40.284Z,29.35
2022-08-22T12:44:26.256Z,28.70
2022-08-22T12:47:02.175Z,29.02
2022-08-22T12:49:52.551Z,28.54
2022-08-22T12:52:41.107Z,29.42
2022-08-22T12:55:30.203Z,29.39
2022-08-22T12:58:20.154Z,29.42
2022-08-22T13:00:48.307Z,29.42
2022-08-22T13:03:53.999Z,29.79
2022-08-22T13:06:37.913Z,29.88
2022-08-22T13:09:31.491Z,29.45
2022-08-22T13:12:05.665Z,29.80
2022-08-22T13:14:34.892Z,30.09
2022-08-22T13:17:15.251Z,29.97
2022-08-22T13:20:03.880Z,29.68
2022-08-22T13:22:35.471Z,30.00
2022-08-22T13:25:16.429Z,29.89
2022-08-22T13:27:59.387Z,30.14
2022-08-22T13:30:37.971Z,30.11
2022-08-22T13:33:15.331Z,30.23
2022-08-22T13:35:52.590Z,30.49
2022-08-22T13:38:28.496Z,30.49
2022-08-22T13:41:00.913Z,30.25
2022-08-22T13:43:38.111Z,30.68
2022-08-22T13:46:10.943Z,30.50
2022-08-22T13:48:46.707Z,30.54
2022-08-22T13:51:40.217Z,30.80
2022-08-22T13:54:11.168Z,30.45
2022-08-22T13:56:52.876Z,30.66
2022-08-22T13:59:49.781Z,31.14
2022-08-22T14:02:21.976Z,30.54
2022-08-22T14:04:53.195Z,30.65
2022-08-22T14:07:30.020Z,30.45
2022-08-22T14:10:23.876Z,30.47
2022-08-22T14:12:57.506Z,30.40
2022-08-22T14:15:32.120Z,30.39
2022-08-22T14:18:15.408Z,30.11
2022-08-22T14:20:48.367Z,30.17
2022-08-22T14:23:32.085Z,30.48
2022-08-22T14:26:01.926Z,30.65
2022-08-22T14:28:35.587Z,30.69
2022-08-22T14:31:14.470Z,30.29
2022-08-22T14:33:50.999Z,30.47
2022-08-22T14:36:35.557Z,30.07
2022-08-22T14:39:11.325Z,30.38
2022-08-22T14:41:55.999Z,30.21
2022-08-22T14:44:36.850Z,30.25
2022-08-22T14:47:34.468Z,29.26
2022-08-22T14:50:02.638Z,29.51
2022-08-22T14:52:36.440Z,29.70
2022-08-22T14:55:23.260Z,30.19
2022-08-22T14:57:55.845Z,29.74
2022-08-22T15:00:40.159Z,29.74
2022-08-22T15:03:11.566Z,29.77
2022-08-22T15:05:46.277Z,29.55
2022-08-22T15:08:24.292Z,29.26
2022-08-22T15:11:12.437Z,29.05
2022-08-22T15:13:50.192Z,29.61
2022-08-22T15:16:23.468Z,29.08
2022-08-22T15:18:51.762Z,29.12
2022-08-22T15:21:26.668Z,29.42
2022-08-22T15:23:59.941Z,29.58
2022-08-22T15:26:50.184Z,29.10
2022-08-22T15:29:22.815Z,29.50
2022-08-22T15:31:54.161Z,29.87
2022-08-22T15:34:35.803Z,29.68
2022-08-22T15:37:16.613Z,29.35
2022-08-22T15:40:11.895Z,29.86
2022-08-22T15:42:45.129Z,29.74
2022-08-22T15:45:34.719Z,29.78
2022-08-22T15:48:09.806Z,30.02
2022-08-22T15:50:54.669Z,30.03
2022-08-22T15:53:30.381Z,30.24
2022-08-22T15:56:06.890Z,29.94
2022-08-22T15:58:40.349Z,29.74
2022-08-22T16:01:26.247Z,30.59
2022-08-22T16:03:56.118Z,30.62
2022-08-22T16:06:55.301Z,30.32
2022-08-22T16:09:46.901Z,30.74
2022-08-22T16:12:38.434Z,30.93
2022-08-22T16:15:27.364Z,30.84
2022-08-22T16:17:57.450Z,31.16
2022-08-22T16:20:24.540Z,31.29
2022-08-22T16:22:57.948Z,31.48
2022-08-22T16:26:03.204Z,31.63
2022-08-22T16:28:57.294Z,31.60
2022-08-22T16:31:27.698Z,32.04
2022-08-22T16:34:20.451Z,31.90
2022-08-22T16:36:47.715Z,31.87
2022-08-22T16:39:21.376Z,32.27
2022-08-22T16:42:16.166Z,32.17
2022-08-22T16:44:49.278Z,32.28
2022-08-22T16:47:30.704Z,32.62
2022-08-22T16:50:04.528Z,32.75
2022-08-22T16:52:33.375Z,32.65
2022-08-22T16:55:35.830Z,32.96
2022-08-22T16:58:49.852Z,32.93
2022-08-22T17:01:36.439Z,32.98
2022-08-22T17:04:45.255Z,33.43
2022-08-22T17:07:38.378Z,33.19
2022-08-22T17:10:24.864Z,33.44
2022-08-22T17:13:26.284Z,33.67
2022-08-22T17:16:13.542Z,33.61
2022-08-22T17:18:46.245Z,33.99
2022-08-22T17:21:32.625Z,33.82
2022-08-22T17:24:32.261Z,34.37
2022-08-22T17:27:19.732Z,34.15
2022-08-22T17:30:01.928Z,34.36
2022-08-22T17:32:37.367Z,34.40
2022-08-22T17:35:36.049Z,34.39
2022-08-22T17:38:29.040Z,34.55
2022-08-22T17:41:28.559Z,35.08
2022-08-22T17:44:22.817Z,34.70
2022-08-22T17:46:50.036Z,34.71
2022-08-22T17:49:45.937Z,34.80
2022-08-22T17:52:31.450Z,35.09
2022-08-22T17:55:07.668Z,34.93
2022-08-22T17:57:51.967Z,34.92
2022-08-22T18:00:26.186Z,34.95
2022-08-22T18:03:00.960Z,35.15
2022-08-22T18:05:32.856Z,35.10
2022-08-22T18:08:37.561Z,35.14
2022-08-22T18:11:12.889Z,35.37
2022-08-22T18:14:07.405Z,35.67
2022-08-22T18:16:50.172Z,35.09
2022-08-22T18:19:40.558Z,35.56
2022-08-22T18:22:28.375Z,35.93
2022-08-22T18:25:05.788Z,35.69
2022-08-22T18:28:02.189Z,35.47
2022-08-22T18:30:33.383Z,35.30
2022-08-22T18:33:41.096Z,35.37
2022-08-22T18:36:38.171Z,35.32
2022-08-22T18:39:28.725Z,35.72
2022-08-22T18:42:18.119Z,35.58
2022-08-22T18:44:45.518Z,35.95
2022-08-22T18:47:25.595Z,36.00
2022-08-22T18:49:54.633Z,36.13
2022-08-22T18:52:27.964Z,36.01
2022-08-22T18:55:25.310Z,35.96
2022-08-22T18:58:17.257Z,36.08
2022-08-22T19:01:03.292Z,36.01
2022-08-22T19:03:47.376Z,35.94
2022-08-22T19:06:43.576Z,36.17
2022-08-22T19:09:52.331Z,36.39
2022-08-22T19:12:19.688Z,36.71
2022-08-22T19:14:58.646Z,36.68
2022-08-22T19:17:28.860Z,36.65
2022-08-22T19:20:41.555Z,36.84
2022-08-22T19:23:33.181Z,36.76
2022-08-22T19:26:25.178Z,36.91
2022-08-22T19:29:07.678Z,37.30
2022-08-22T19:31:41.317Z,37.12
2022-08-22T19:34:32.780Z,37.40
2022-08-22T19:37:32.340Z,37.63
2022-08-22T19:40:11.386Z,37.45
2022-08-22T19:42:41.783Z,37.70
2022-08-22T19:45:09.457Z,37.74
2022-08-22T19:47:42.601Z,37.64
2022-08-22T19:50:28.175Z,38.22
2022-08-22T19:53:49.627Z,37.71
2022-08-22T19:56:29.475Z,38.17
2022-08-22T19:58:59.282Z,38.26
2022-08-22T20:01:48.112Z,38.31
2022-08-22T20:04:42.430Z,38.36
2022-08-22T20:07:38.568Z,38.57
2022-08-22T20:10:44.096Z,38.23
2022-08-22T20:13:24.039Z,38.75
2022-08-22T20:16:10.327Z,38.43
2022-08-22T20:19:07.825Z,38.72
2022-08-22T20:22:02.211Z,38.49
2022-08-22T20:24:49.631Z,38.71
2022-08-22T20:27:31.096Z,38.95
2022-08-22T20:30:18.810Z,38.90
2022-08-22T20:32:53.846Z,39.12
2022-08-22T20:35:26.863Z,39.33
2022-08-22T20:38:06.747Z,38.93
2022-08-22T20:40:54.846Z,39.69
2022-08-22T20:43:55.280Z,39.88
2022-08-22T20:46:46.109Z,39.96
2022-08-22T20:49:28.699Z,40.27
2022-08-22T20:52:10.526Z,40.36
2022-08-22T20:54:40.861Z,40.25
2022-08-22T20:57:18.275Z,40.08
2022-08-22T21:00:05.815Z,40.66
2022-08-22T21:02:39.458Z,40.37
2022-08-22T21:05:18.650Z,40.53
2022-08-22T21:07:48.703Z,40.48
2022-08-22T21:10:39.961Z,40.35
2022-08-22T21:13:13.326Z,39.81
2022-08-22T21:15:48.997Z,39.94
2022-08-22T21:18:31.618Z,40.33
2022-08-22T21:21:20.622Z,40.13
2022-08-22T21:24:07.923Z,39.94
2022-08-22T21:26:55.834Z,40.38
2022-08-22T21:29:33.852Z,40.12
2022-08-22T21:32:18.755Z,40.13
2022-08-22T21:34:49.062Z,40.25
2022-08-22T21:37:29.782Z,40.58
2022-08-22T21:40:19.287Z,40.70
2022-08-22T21:43:03.502Z,40.55
2022-08-22T21:45:38.330Z,40.99
2022-08-22T21:48:30.304Z,40.56
2022-08-22T21:51:40.812Z,40.89
2022-08-22T21:54:26.130Z,40.76
2022-08-22T21:56:55.807Z,40.62
2022-08-22T21:59:51.980Z,41.06
2022-08-22T22:02:36.367Z,40.97
2022-08-22T22:05:11.442Z,41.32
2022-08-22T22:07:42.098Z,41.40
2022-08-22T22:10:12.820Z,41.45
2022-08-22T22:12:42.949Z,41.15
2022-08-22T22:15:15.250Z,41.63
2022-08-22T22:17:43.414Z,41.70
2022-08-22T22:20:12.556Z,41.39
2022-08-22T22:22:45.764Z,41.84
2022-08-22T22:25:40.415Z,41.85
2022-08-22T22:28:16.504Z,42.08
2022-08-22T22:30:45.484Z,42.43
2022-08-22T22:33:12.919Z,42.51
2022-08-22T22:35:40.768Z,42.75
2022-08-22T22:38:08.720Z,43.19
2022-08-22T22:40:36.380Z,43.32
2022-08-22T22:43:04.103Z,43.62
2022-08-22T22:45:31.308Z,43.40
2022-08-22T22:47:58.728Z,43.91
2022-08-22T22:50:26.523Z,43.80
2022-08-22T22:52:54.205Z,43.90
2022-08-22T22:55:24.574Z,44.14
2022-08-22T22:57:59.262Z,44.34
2022-08-22T23:00:31.744Z,44.56
2022-08-22T23:03:01.624Z,45.13
2022-08-22T23:05:32.797Z,45.09
2022-08-22T23:08:00.620Z,45.02
2022-08-22T23:10:29.696Z,45.03
2022-08-22T23:12:57.190Z,45.45
2022-08-22T23:15:24.570Z,45.56
2022-08-22T23:17:51.746Z,45.70
2022-08-22T23:20:19.311Z,45.62
2022-08-22T23:22:46.540Z,46.03
2022-08-22T23:25:14.608Z,46.22
2022-08-22T23:27:41.872Z,46.31
2022-08-22T23:30:10.615Z,46.83
2022-08-22T23:32:38.202Z,47.13
2022-08-22T23:35:05.916Z,47.40
2022-08-22T23:37:33.091Z,47.08
2022-08-22T23:40:00.340Z,47.26
2022-08-22T23:42:29.190Z,47.07
2022-08-22T23:44:56.389Z,47.09
2022-08-22T23:47:23.527Z,47.08
2022-08-22T23:49:50.797Z,46.73
2022-08-22T23:52:17.916Z,46.48
2022-08-22T23:54:45.048Z,46.54
2022-08-22T23:57:12.784Z,46.66
2022-08-22T23:59:48.459Z,46.90
